Key West, FL

9:27 AM EDT on August 27, 2014 (GMT -0400)
Key West International | Change Station
CLOSE
Current Station
Airport
Location: Key West,
Elevation: 0 ft
Nearby Weather Stations

Elev 0 ft 24.56 °N, 81.75 °W | Updated 34 minutes ago

Light Rain
Light Rain
84 °F
Feels Like 93 °F
N
8
Wind Variable Wind from ENE

Today
High -- | Low -- °F
--% Chance of Precip.
Yesterday
High -- | Low -- °F
Precip. -- in
7:06 AM 7:50 PM
Waxing Crescent, 3% visible
Pressure 29.91 in
Visibility 10.0 miles
Clouds Few 3000 ft
Mostly Cloudy 3800 ft
Mostly Cloudy 5000 ft
Heat Index 93 °F
Dew Point 76 °F
Humidity 76%
Rainfall 0.00 in
Snow Depth Not available.
UV 1 out of 12
Pollen 5.00 out of 12
Air Quality Not available.
Flu Activity Not available.
METAR KEYW 271253Z 06007KT 10SM -RA FEW030 BKN038 BKN050 29/24 A2991 RMK AO2 RAB37 SLP129 P0000 T02890244

More Conditions Fewer Conditions

Pressure 29.91 in
Visibility 10.0 miles
Clouds Few 3000 ft
Mostly Cloudy 3800 ft
Mostly Cloudy 5000 ft
Heat Index 93 °F
Dew Point 76 °F
Humidity 76%
Rainfall 0.00 in
Snow Depth Not available.
UV 1 out of 12
Pollen 5.00 out of 12
Air Quality Not available.
Flu Activity Not available.
METAR KEYW 271253Z 06007KT 10SM -RA FEW030 BKN038 BKN050 29/24 A2991 RMK AO2 RAB37 SLP129 P0000 T02890244

More Conditions Fewer Conditions

Nowcast | as of 8:46 am EDT on August 27, 2014

Through 1000 am...widely separated showers will affect the Florida Keys...as well as the coastal waters of the Atlantic. These showers will move to the west-northwest at around 15 knots. The strongest showers will produce wind gusts near 25 knots and moderate rain...temporarily reducing the visibility to near three miles. Over land...the most likely area to see rainfall will be in the vicinity of Key West and Marathon. The majority of showers will be located over the western portion of the Florida Straits.

×

10-Day Weather Forecast

Almanac

Astronomy

Aug. 27, 2014 Rise Set
Actual Time 7:06 AM EDT 7:50 PM EDT
Civil Twilight 6:43 AM EDT 8:13 PM EDT
Nautical Twilight 6:15 AM EDT 8:40 PM EDT
Astronomical Twilight 5:47 AM EDT 9:08 PM EDT
Moon 8:44 AM EDT 9:01 PM EDT
Length of Visible Light 13h 30m
Length of Day
12h 43m
Tomorrow will be 1m 21s shorter.
Waxing Crescent, 3% of the Moon is Illuminated
Today
Waxing Crescent
Sep 2
First Quarter
Sep 8
Full
Sep 15
Last Quarter
Sep 24
New

Today's Extremes

State Highs State Lows

Community

WunderPhotos

Upload Photos

1,747,682 photos uploaded!

Nearby

Snow Depth

Station Depth Elevation
No new snow has been reported.

Earthquake Activity

City Distance Mag. Time & Date
No recent earthquake activity has been reported nearby.
Minimum magnitude displayed is 2.5.

Coastal Water Temperatures

Place Temperature
No Stations Reporting

Nearby Weather Stations